sensor_id;sensor_type;location;lat;lon;timestamp;P1;durP1;ratioP1;P2;durP2;ratioP2
11984;SDS011;6052;53.246;10.368;2022-08-01T00:00:49;7.32;;;5.60;;
11984;SDS011;6052;53.246;10.368;2022-08-01T00:03:16;5.95;;;5.10;;
11984;SDS011;6052;53.246;10.368;2022-08-01T00:05:44;6.25;;;5.65;;
11984;SDS011;6052;53.246;10.368;2022-08-01T00:08:12;6.63;;;5.22;;
11984;SDS011;6052;53.246;10.368;2022-08-01T00:10:42;8.35;;;5.22;;
11984;SDS011;6052;53.246;10.368;2022-08-01T00:13:09;5.70;;;5.10;;
11984;SDS011;6052;53.246;10.368;2022-08-01T00:15:37;6.82;;;5.90;;
11984;SDS011;6052;53.246;10.368;2022-08-01T00:18:05;6.85;;;5.63;;
11984;SDS011;6052;53.246;10.368;2022-08-01T00:20:32;6.88;;;5.90;;
11984;SDS011;6052;53.246;10.368;2022-08-01T00:23:01;6.97;;;5.18;;
11984;SDS011;6052;53.246;10.368;2022-08-01T00:25:29;6.40;;;5.55;;
11984;SDS011;6052;53.246;10.368;2022-08-01T00:28:01;6.95;;;5.70;;
11984;SDS011;6052;53.246;10.368;2022-08-01T00:30:30;5.63;;;4.85;;
11984;SDS011;6052;53.246;10.368;2022-08-01T00:32:58;6.70;;;5.68;;
11984;SDS011;6052;53.246;10.368;2022-08-01T00:35:27;7.13;;;6.03;;
11984;SDS011;6052;53.246;10.368;2022-08-01T00:37:55;6.15;;;5.55;;
11984;SDS011;6052;53.246;10.368;2022-08-01T00:40:23;7.38;;;5.65;;
11984;SDS011;6052;53.246;10.368;2022-08-01T00:42:50;6.55;;;5.43;;
11984;SDS011;6052;53.246;10.368;2022-08-01T00:45:20;7.43;;;5.63;;
11984;SDS011;6052;53.246;10.368;2022-08-01T00:47:47;5.50;;;4.90;;
11984;SDS011;6052;53.246;10.368;2022-08-01T00:50:21;7.43;;;5.40;;
11984;SDS011;6052;53.246;10.368;2022-08-01T00:52:50;7.10;;;5.35;;
11984;SDS011;6052;53.246;10.368;2022-08-01T00:55:18;6.15;;;4.93;;
11984;SDS011;6052;53.246;10.368;2022-08-01T00:57:46;7.43;;;5.82;;
11984;SDS011;6052;53.246;10.368;2022-08-01T01:00:33;7.10;;;6.20;;
11984;SDS011;6052;53.246;10.368;2022-08-01T01:03:19;6.88;;;5.55;;
11984;SDS011;6052;53.246;10.368;2022-08-01T01:06:05;5.55;;;4.95;;
11984;SDS011;6052;53.246;10.368;2022-08-01T01:08:42;6.97;;;5.97;;
11984;SDS011;6052;53.246;10.368;2022-08-01T01:11:13;8.20;;;5.75;;
11984;SDS011;6052;53.246;10.368;2022-08-01T01:13:49;9.00;;;5.55;;
11984;SDS011;6052;53.246;10.368;2022-08-01T01:16:21;6.35;;;5.72;;
11984;SDS011;6052;53.246;10.368;2022-08-01T01:18:51;6.60;;;5.78;;
11984;SDS011;6052;53.246;10.368;2022-08-01T01:21:28;5.28;;;4.78;;
11984;SDS011;6052;53.246;10.368;2022-08-01T01:24:04;5.35;;;4.80;;
11984;SDS011;6052;53.246;10.368;2022-08-01T01:26:43;5.30;;;4.80;;
11984;SDS011;6052;53.246;10.368;2022-08-01T01:29:15;6.53;;;5.30;;
11984;SDS011;6052;53.246;10.368;2022-08-01T01:31:46;7.63;;;5.22;;
11984;SDS011;6052;53.246;10.368;2022-08-01T01:34:17;8.70;;;4.90;;
11984;SDS011;6052;53.246;10.368;2022-08-01T01:36:47;10.68;;;5.25;;
11984;SDS011;6052;53.246;10.368;2022-08-01T01:39:15;6.78;;;5.13;;
11984;SDS011;6052;53.246;10.368;2022-08-01T01:41:44;6.70;;;5.57;;
11984;SDS011;6052;53.246;10.368;2022-08-01T01:44:12;7.13;;;5.28;;
11984;SDS011;6052;53.246;10.368;2022-08-01T01:46:42;6.10;;;5.00;;
11984;SDS011;6052;53.246;10.368;2022-08-01T01:49:10;6.82;;;5.53;;
11984;SDS011;6052;53.246;10.368;2022-08-01T01:51:38;8.50;;;5.30;;
11984;SDS011;6052;53.246;10.368;2022-08-01T01:54:14;7.30;;;5.55;;
11984;SDS011;6052;53.246;10.368;2022-08-01T01:56:42;5.60;;;5.00;;
11984;SDS011;6052;53.246;10.368;2022-08-01T01:59:18;6.43;;;5.13;;
11984;SDS011;6052;53.246;10.368;2022-08-01T02:01:51;6.50;;;5.63;;
11984;SDS011;6052;53.246;10.368;2022-08-01T02:04:32;8.25;;;5.88;;
11984;SDS011;6052;53.246;10.368;2022-08-01T02:07:01;6.03;;;5.40;;
11984;SDS011;6052;53.246;10.368;2022-08-01T02:09:29;8.40;;;5.40;;
11984;SDS011;6052;53.246;10.368;2022-08-01T02:11:58;6.32;;;5.65;;
11984;SDS011;6052;53.246;10.368;2022-08-01T02:14:35;7.80;;;5.90;;
11984;SDS011;6052;53.246;10.368;2022-08-01T02:17:06;7.47;;;5.90;;
11984;SDS011;6052;53.246;10.368;2022-08-01T02:19:34;6.60;;;5.43;;
11984;SDS011;6052;53.246;10.368;2022-08-01T02:22:04;8.38;;;5.72;;
11984;SDS011;6052;53.246;10.368;2022-08-01T02:24:36;7.75;;;6.13;;
11984;SDS011;6052;53.246;10.368;2022-08-01T02:27:06;8.88;;;5.43;;
11984;SDS011;6052;53.246;10.368;2022-08-01T02:29:38;6.80;;;5.50;;
11984;SDS011;6052;53.246;10.368;2022-08-01T02:32:08;7.47;;;6.32;;
11984;SDS011;6052;53.246;10.368;2022-08-01T02:34:39;6.20;;;5.60;;
11984;SDS011;6052;53.246;10.368;2022-08-01T02:37:08;7.25;;;5.63;;
11984;SDS011;6052;53.246;10.368;2022-08-01T02:39:37;7.53;;;5.50;;
11984;SDS011;6052;53.246;10.368;2022-08-01T02:42:06;6.00;;;5.40;;
11984;SDS011;6052;53.246;10.368;2022-08-01T02:44:36;6.70;;;5.68;;
11984;SDS011;6052;53.246;10.368;2022-08-01T02:47:06;8.48;;;5.90;;
11984;SDS011;6052;53.246;10.368;2022-08-01T02:49:37;7.80;;;5.72;;
11984;SDS011;6052;53.246;10.368;2022-08-01T02:52:13;9.00;;;5.78;;
11984;SDS011;6052;53.246;10.368;2022-08-01T02:54:42;5.95;;;5.13;;
11984;SDS011;6052;53.246;10.368;2022-08-01T02:57:11;7.20;;;5.80;;
11984;SDS011;6052;53.246;10.368;2022-08-01T02:59:41;5.13;;;4.63;;
11984;SDS011;6052;53.246;10.368;2022-08-01T03:02:11;5.72;;;5.10;;
11984;SDS011;6052;53.246;10.368;2022-08-01T03:04:40;6.20;;;4.68;;
11984;SDS011;6052;53.246;10.368;2022-08-01T03:07:09;6.53;;;4.75;;
11984;SDS011;6052;53.246;10.368;2022-08-01T03:09:38;5.65;;;4.78;;
11984;SDS011;6052;53.246;10.368;2022-08-01T03:12:08;5.30;;;4.65;;
11984;SDS011;6052;53.246;10.368;2022-08-01T03:14:38;6.50;;;4.63;;
11984;SDS011;6052;53.246;10.368;2022-08-01T03:17:09;5.30;;;4.22;;
11984;SDS011;6052;53.246;10.368;2022-08-01T03:19:38;5.10;;;4.00;;
11984;SDS011;6052;53.246;10.368;2022-08-01T03:22:07;5.85;;;3.60;;
11984;SDS011;6052;53.246;10.368;2022-08-01T03:24:37;4.82;;;3.92;;
11984;SDS011;6052;53.246;10.368;2022-08-01T03:27:06;5.05;;;3.83;;
11984;SDS011;6052;53.246;10.368;2022-08-01T03:29:33;4.95;;;3.58;;
11984;SDS011;6052;53.246;10.368;2022-08-01T03:32:01;5.60;;;3.58;;
11984;SDS011;6052;53.246;10.368;2022-08-01T03:34:31;4.30;;;3.15;;
11984;SDS011;6052;53.246;10.368;2022-08-01T03:37:04;4.80;;;3.50;;
11984;SDS011;6052;53.246;10.368;2022-08-01T03:39:34;3.40;;;3.08;;
11984;SDS011;6052;53.246;10.368;2022-08-01T03:42:08;4.10;;;3.63;;
11984;SDS011;6052;53.246;10.368;2022-08-01T03:44:40;3.65;;;3.10;;
11984;SDS011;6052;53.246;10.368;2022-08-01T03:47:09;3.50;;;3.20;;
11984;SDS011;6052;53.246;10.368;2022-08-01T03:49:40;3.70;;;3.40;;
11984;SDS011;6052;53.246;10.368;2022-08-01T03:52:09;3.83;;;2.65;;
11984;SDS011;6052;53.246;10.368;2022-08-01T03:54:40;3.70;;;2.90;;
11984;SDS011;6052;53.246;10.368;2022-08-01T03:57:09;6.75;;;2.97;;
11984;SDS011;6052;53.246;10.368;2022-08-01T03:59:59;3.63;;;2.92;;
11984;SDS011;6052;53.246;10.368;2022-08-01T04:02:27;4.78;;;2.55;;
11984;SDS011;6052;53.246;10.368;2022-08-01T04:04:56;4.85;;;2.88;;
11984;SDS011;6052;53.246;10.368;2022-08-01T04:07:29;4.63;;;2.88;;
11984;SDS011;6052;53.246;10.368;2022-08-01T04:09:58;5.57;;;2.92;;
11984;SDS011;6052;53.246;10.368;2022-08-01T04:12:27;5.63;;;3.08;;
11984;SDS011;6052;53.246;10.368;2022-08-01T04:14:55;2.95;;;2.60;;
11984;SDS011;6052;53.246;10.368;2022-08-01T04:17:23;3.72;;;2.80;;
11984;SDS011;6052;53.246;10.368;2022-08-01T04:19:51;6.40;;;3.13;;
11984;SDS011;6052;53.246;10.368;2022-08-01T04:22:20;6.63;;;2.65;;
11984;SDS011;6052;53.246;10.368;2022-08-01T04:24:49;4.35;;;3.40;;
11984;SDS011;6052;53.246;10.368;2022-08-01T04:27:23;4.00;;;2.75;;
11984;SDS011;6052;53.246;10.368;2022-08-01T04:30:15;4.13;;;2.67;;
11984;SDS011;6052;53.246;10.368;2022-08-01T04:32:46;4.15;;;3.03;;
11984;SDS011;6052;53.246;10.368;2022-08-01T04:35:16;2.80;;;2.40;;
11984;SDS011;6052;53.246;10.368;2022-08-01T04:38:07;4.22;;;3.08;;
11984;SDS011;6052;53.246;10.368;2022-08-01T04:40:36;2.80;;;2.40;;
11984;SDS011;6052;53.246;10.368;2022-08-01T04:43:05;2.88;;;2.15;;
11984;SDS011;6052;53.246;10.368;2022-08-01T04:45:33;3.45;;;2.63;;
11984;SDS011;6052;53.246;10.368;2022-08-01T04:48:00;2.33;;;2.10;;
11984;SDS011;6052;53.246;10.368;2022-08-01T04:50:29;3.72;;;2.45;;
11984;SDS011;6052;53.246;10.368;2022-08-01T04:52:58;3.45;;;2.95;;
11984;SDS011;6052;53.246;10.368;2022-08-01T04:55:28;2.40;;;2.15;;
11984;SDS011;6052;53.246;10.368;2022-08-01T04:57:57;2.92;;;2.28;;
11984;SDS011;6052;53.246;10.368;2022-08-01T05:00:27;4.13;;;2.30;;
11984;SDS011;6052;53.246;10.368;2022-08-01T05:02:56;2.67;;;2.40;;
11984;SDS011;6052;53.246;10.368;2022-08-01T05:05:24;2.20;;;2.00;;
11984;SDS011;6052;53.246;10.368;2022-08-01T05:07:52;3.60;;;2.30;;
11984;SDS011;6052;53.246;10.368;2022-08-01T05:10:20;3.75;;;1.83;;
11984;SDS011;6052;53.246;10.368;2022-08-01T05:12:49;2.72;;;1.60;;
11984;SDS011;6052;53.246;10.368;2022-08-01T05:15:17;2.88;;;1.95;;
11984;SDS011;6052;53.246;10.368;2022-08-01T05:17:45;2.42;;;1.65;;
11984;SDS011;6052;53.246;10.368;2022-08-01T05:20:13;1.67;;;1.58;;
11984;SDS011;6052;53.246;10.368;2022-08-01T05:22:40;1.80;;;1.48;;
11984;SDS011;6052;53.246;10.368;2022-08-01T05:25:08;2.08;;;1.60;;
11984;SDS011;6052;53.246;10.368;2022-08-01T05:27:38;4.10;;;1.55;;
11984;SDS011;6052;53.246;10.368;2022-08-01T05:30:09;2.00;;;1.60;;
11984;SDS011;6052;53.246;10.368;2022-08-01T05:32:37;3.83;;;1.98;;
11984;SDS011;6052;53.246;10.368;2022-08-01T05:35:05;2.65;;;1.60;;
11984;SDS011;6052;53.246;10.368;2022-08-01T05:37:34;2.55;;;1.33;;
11984;SDS011;6052;53.246;10.368;2022-08-01T05:40:05;3.90;;;1.70;;
11984;SDS011;6052;53.246;10.368;2022-08-01T05:42:34;2.53;;;1.67;;
11984;SDS011;6052;53.246;10.368;2022-08-01T05:45:03;1.60;;;1.50;;
11984;SDS011;6052;53.246;10.368;2022-08-01T05:47:33;2.40;;;1.58;;
11984;SDS011;6052;53.246;10.368;2022-08-01T05:50:02;1.70;;;1.40;;
11984;SDS011;6052;53.246;10.368;2022-08-01T05:52:30;1.42;;;1.23;;
11984;SDS011;6052;53.246;10.368;2022-08-01T05:54:58;1.83;;;1.50;;
11984;SDS011;6052;53.246;10.368;2022-08-01T05:57:27;2.03;;;1.20;;
11984;SDS011;6052;53.246;10.368;2022-08-01T05:59:55;2.85;;;1.40;;
11984;SDS011;6052;53.246;10.368;2022-08-01T06:02:22;1.55;;;1.30;;
11984;SDS011;6052;53.246;10.368;2022-08-01T06:04:52;2.50;;;1.40;;
11984;SDS011;6052;53.246;10.368;2022-08-01T06:07:19;1.27;;;1.17;;
11984;SDS011;6052;53.246;10.368;2022-08-01T06:09:47;2.30;;;1.35;;
11984;SDS011;6052;53.246;10.368;2022-08-01T06:12:15;1.13;;;1.02;;
11984;SDS011;6052;53.246;10.368;2022-08-01T06:14:43;8.25;;;6.53;;
11984;SDS011;6052;53.246;10.368;2022-08-01T06:17:10;1.30;;;1.20;;
11984;SDS011;6052;53.246;10.368;2022-08-01T06:19:38;1.80;;;1.45;;
11984;SDS011;6052;53.246;10.368;2022-08-01T06:22:07;1.70;;;1.20;;
11984;SDS011;6052;53.246;10.368;2022-08-01T06:24:36;1.00;;;0.95;;
11984;SDS011;6052;53.246;10.368;2022-08-01T06:27:03;0.85;;;0.85;;
11984;SDS011;6052;53.246;10.368;2022-08-01T06:29:47;0.80;;;0.80;;
11984;SDS011;6052;53.246;10.368;2022-08-01T06:32:19;0.77;;;0.77;;
11984;SDS011;6052;53.246;10.368;2022-08-01T06:34:52;0.70;;;0.70;;
11984;SDS011;6052;53.246;10.368;2022-08-01T06:37:22;0.70;;;0.70;;
11984;SDS011;6052;53.246;10.368;2022-08-01T06:39:50;0.75;;;0.75;;
11984;SDS011;6052;53.246;10.368;2022-08-01T06:42:18;0.70;;;0.70;;
11984;SDS011;6052;53.246;10.368;2022-08-01T06:44:46;0.80;;;0.80;;
11984;SDS011;6052;53.246;10.368;2022-08-01T06:47:14;2.15;;;1.08;;
11984;SDS011;6052;53.246;10.368;2022-08-01T06:49:41;1.10;;;1.00;;
11984;SDS011;6052;53.246;10.368;2022-08-01T06:52:09;1.50;;;1.40;;
11984;SDS011;6052;53.246;10.368;2022-08-01T06:54:38;2.97;;;1.45;;
11984;SDS011;6052;53.246;10.368;2022-08-01T06:57:06;2.53;;;1.80;;
11984;SDS011;6052;53.246;10.368;2022-08-01T06:59:34;2.03;;;1.88;;
11984;SDS011;6052;53.246;10.368;2022-08-01T07:02:02;2.17;;;1.98;;
11984;SDS011;6052;53.246;10.368;2022-08-01T07:04:31;1.98;;;1.88;;
11984;SDS011;6052;53.246;10.368;2022-08-01T07:06:59;2.80;;;2.08;;
11984;SDS011;6052;53.246;10.368;2022-08-01T07:09:29;4.43;;;1.85;;
11984;SDS011;6052;53.246;10.368;2022-08-01T07:11:58;1.92;;;1.75;;
11984;SDS011;6052;53.246;10.368;2022-08-01T07:14:27;2.28;;;1.83;;
11984;SDS011;6052;53.246;10.368;2022-08-01T07:16:55;2.35;;;1.88;;
11984;SDS011;6052;53.246;10.368;2022-08-01T07:19:22;4.25;;;2.28;;
11984;SDS011;6052;53.246;10.368;2022-08-01T07:21:50;3.65;;;1.98;;
11984;SDS011;6052;53.246;10.368;2022-08-01T07:24:19;2.25;;;2.05;;
11984;SDS011;6052;53.246;10.368;2022-08-01T07:26:48;2.25;;;2.05;;
11984;SDS011;6052;53.246;10.368;2022-08-01T07:29:22;3.83;;;2.15;;
11984;SDS011;6052;53.246;10.368;2022-08-01T07:31:50;3.95;;;2.15;;
11984;SDS011;6052;53.246;10.368;2022-08-01T07:34:19;1.95;;;1.75;;
11984;SDS011;6052;53.246;10.368;2022-08-01T07:36:46;2.03;;;1.83;;
11984;SDS011;6052;53.246;10.368;2022-08-01T07:39:14;2.10;;;1.90;;
11984;SDS011;6052;53.246;10.368;2022-08-01T07:41:42;6.22;;;2.25;;
11984;SDS011;6052;53.246;10.368;2022-08-01T07:44:31;2.33;;;1.80;;
11984;SDS011;6052;53.246;10.368;2022-08-01T07:46:59;2.10;;;1.90;;
11984;SDS011;6052;53.246;10.368;2022-08-01T07:49:28;3.05;;;1.85;;
11984;SDS011;6052;53.246;10.368;2022-08-01T07:52:03;2.63;;;1.95;;
11984;SDS011;6052;53.246;10.368;2022-08-01T07:54:31;2.22;;;1.80;;
11984;SDS011;6052;53.246;10.368;2022-08-01T07:57:00;3.80;;;2.10;;
11984;SDS011;6052;53.246;10.368;2022-08-01T07:59:29;2.63;;;2.22;;
11984;SDS011;6052;53.246;10.368;2022-08-01T08:01:59;2.25;;;2.05;;
11984;SDS011;6052;53.246;10.368;2022-08-01T08:04:27;1.90;;;1.77;;
11984;SDS011;6052;53.246;10.368;2022-08-01T08:06:55;6.35;;;2.50;;
11984;SDS011;6052;53.246;10.368;2022-08-01T08:09:23;4.75;;;1.92;;
11984;SDS011;6052;53.246;10.368;2022-08-01T08:11:51;4.80;;;1.92;;
11984;SDS011;6052;53.246;10.368;2022-08-01T08:14:18;3.95;;;2.28;;
11984;SDS011;6052;53.246;10.368;2022-08-01T08:16:59;2.45;;;2.10;;
11984;SDS011;6052;53.246;10.368;2022-08-01T08:19:29;2.22;;;2.03;;
11984;SDS011;6052;53.246;10.368;2022-08-01T08:22:04;5.40;;;2.30;;
11984;SDS011;6052;53.246;10.368;2022-08-01T08:24:33;4.07;;;2.25;;
11984;SDS011;6052;53.246;10.368;2022-08-01T08:27:02;4.75;;;2.38;;
11984;SDS011;6052;53.246;10.368;2022-08-01T08:29:30;4.18;;;2.25;;
11984;SDS011;6052;53.246;10.368;2022-08-01T08:32:00;2.65;;;2.22;;
11984;SDS011;6052;53.246;10.368;2022-08-01T08:34:30;2.63;;;1.90;;
11984;SDS011;6052;53.246;10.368;2022-08-01T08:36:59;4.90;;;2.08;;
11984;SDS011;6052;53.246;10.368;2022-08-01T08:39:28;4.88;;;2.10;;
11984;SDS011;6052;53.246;10.368;2022-08-01T08:42:08;3.30;;;1.60;;
11984;SDS011;6052;53.246;10.368;2022-08-01T08:44:36;5.32;;;1.88;;
11984;SDS011;6052;53.246;10.368;2022-08-01T08:47:11;5.47;;;2.13;;
11984;SDS011;6052;53.246;10.368;2022-08-01T08:49:45;4.47;;;2.00;;
11984;SDS011;6052;53.246;10.368;2022-08-01T08:52:15;3.22;;;2.20;;
11984;SDS011;6052;53.246;10.368;2022-08-01T08:54:43;5.32;;;2.28;;
11984;SDS011;6052;53.246;10.368;2022-08-01T08:57:13;6.53;;;2.55;;
11984;SDS011;6052;53.246;10.368;2022-08-01T08:59:42;5.30;;;2.10;;
11984;SDS011;6052;53.246;10.368;2022-08-01T09:02:12;5.00;;;2.00;;
11984;SDS011;6052;53.246;10.368;2022-08-01T09:04:40;3.15;;;1.90;;
11984;SDS011;6052;53.246;10.368;2022-08-01T09:07:08;5.10;;;2.17;;
11984;SDS011;6052;53.246;10.368;2022-08-01T09:09:37;2.85;;;1.85;;
11984;SDS011;6052;53.246;10.368;2022-08-01T09:12:07;5.25;;;2.55;;
11984;SDS011;6052;53.246;10.368;2022-08-01T09:14:44;6.50;;;2.70;;
11984;SDS011;6052;53.246;10.368;2022-08-01T09:17:13;7.28;;;2.65;;
11984;SDS011;6052;53.246;10.368;2022-08-01T09:19:43;4.68;;;2.20;;
11984;SDS011;6052;53.246;10.368;2022-08-01T09:22:14;6.78;;;2.25;;
11984;SDS011;6052;53.246;10.368;2022-08-01T09:24:56;5.53;;;2.55;;
11984;SDS011;6052;53.246;10.368;2022-08-01T09:27:25;9.77;;;2.28;;
11984;SDS011;6052;53.246;10.368;2022-08-01T09:29:53;9.77;;;2.92;;
11984;SDS011;6052;53.246;10.368;2022-08-01T09:32:29;7.32;;;2.53;;
11984;SDS011;6052;53.246;10.368;2022-08-01T09:35:21;8.02;;;2.80;;
11984;SDS011;6052;53.246;10.368;2022-08-01T09:38:11;5.55;;;2.80;;
11984;SDS011;6052;53.246;10.368;2022-08-01T09:40:49;7.13;;;2.28;;
11984;SDS011;6052;53.246;10.368;2022-08-01T09:43:19;5.05;;;2.40;;
11984;SDS011;6052;53.246;10.368;2022-08-01T09:45:52;2.67;;;1.90;;
11984;SDS011;6052;53.246;10.368;2022-08-01T09:48:24;4.53;;;1.77;;
11984;SDS011;6052;53.246;10.368;2022-08-01T09:50:55;3.50;;;1.50;;
11984;SDS011;6052;53.246;10.368;2022-08-01T09:53:40;2.95;;;1.30;;
11984;SDS011;6052;53.246;10.368;2022-08-01T09:56:17;4.75;;;1.48;;
11984;SDS011;6052;53.246;10.368;2022-08-01T09:58:48;2.92;;;1.60;;
11984;SDS011;6052;53.246;10.368;2022-08-01T10:01:25;5.47;;;1.83;;
11984;SDS011;6052;53.246;10.368;2022-08-01T10:04:06;4.72;;;1.77;;
11984;SDS011;6052;53.246;10.368;2022-08-01T10:06:37;3.92;;;1.73;;
11984;SDS011;6052;53.246;10.368;2022-08-01T10:09:06;3.13;;;1.92;;
11984;SDS011;6052;53.246;10.368;2022-08-01T10:11:35;4.72;;;1.40;;
11984;SDS011;6052;53.246;10.368;2022-08-01T10:14:05;4.63;;;1.80;;
11984;SDS011;6052;53.246;10.368;2022-08-01T10:16:33;4.45;;;1.60;;
11984;SDS011;6052;53.246;10.368;2022-08-01T10:19:06;2.90;;;1.40;;
11984;SDS011;6052;53.246;10.368;2022-08-01T10:21:41;3.78;;;1.33;;
11984;SDS011;6052;53.246;10.368;2022-08-01T10:24:24;5.95;;;1.80;;
11984;SDS011;6052;53.246;10.368;2022-08-01T10:26:55;3.35;;;1.30;;
11984;SDS011;6052;53.246;10.368;2022-08-01T10:29:32;4.55;;;1.45;;
11984;SDS011;6052;53.246;10.368;2022-08-01T10:32:23;4.13;;;1.75;;
11984;SDS011;6052;53.246;10.368;2022-08-01T10:34:55;7.53;;;1.77;;
11984;SDS011;6052;53.246;10.368;2022-08-01T10:37:24;6.20;;;1.90;;
11984;SDS011;6052;53.246;10.368;2022-08-01T10:39:52;8.95;;;2.08;;
11984;SDS011;6052;53.246;10.368;2022-08-01T10:42:41;4.97;;;2.00;;
11984;SDS011;6052;53.246;10.368;2022-08-01T10:45:09;5.88;;;2.20;;
11984;SDS011;6052;53.246;10.368;2022-08-01T10:47:40;4.60;;;2.35;;
11984;SDS011;6052;53.246;10.368;2022-08-01T10:50:21;7.28;;;2.17;;
11984;SDS011;6052;53.246;10.368;2022-08-01T10:53:09;5.25;;;2.17;;
11984;SDS011;6052;53.246;10.368;2022-08-01T10:55:49;5.50;;;2.40;;
11984;SDS011;6052;53.246;10.368;2022-08-01T10:58:21;4.82;;;2.30;;
11984;SDS011;6052;53.246;10.368;2022-08-01T11:01:14;6.15;;;2.08;;
11984;SDS011;6052;53.246;10.368;2022-08-01T11:03:56;5.68;;;2.67;;
11984;SDS011;6052;53.246;10.368;2022-08-01T11:06:41;4.43;;;2.08;;
11984;SDS011;6052;53.246;10.368;2022-08-01T11:09:19;5.13;;;2.17;;
11984;SDS011;6052;53.246;10.368;2022-08-01T11:12:04;7.00;;;2.08;;
11984;SDS011;6052;53.246;10.368;2022-08-01T11:17:57;6.15;;;2.08;;
11984;SDS011;6052;53.246;10.368;2022-08-01T11:20:30;5.65;;;2.17;;
11984;SDS011;6052;53.246;10.368;2022-08-01T11:26:06;2.65;;;1.75;;
11984;SDS011;6052;53.246;10.368;2022-08-01T11:28:36;4.13;;;1.75;;
11984;SDS011;6052;53.246;10.368;2022-08-01T11:31:28;9.32;;;2.15;;
11984;SDS011;6052;53.246;10.368;2022-08-01T11:34:03;4.35;;;1.60;;
11984;SDS011;6052;53.246;10.368;2022-08-01T11:36:31;7.60;;;1.70;;
11984;SDS011;6052;53.246;10.368;2022-08-01T11:39:20;9.02;;;2.42;;
11984;SDS011;6052;53.246;10.368;2022-08-01T11:41:48;5.65;;;1.50;;
11984;SDS011;6052;53.246;10.368;2022-08-01T11:44:20;5.43;;;1.75;;
11984;SDS011;6052;53.246;10.368;2022-08-01T11:46:53;4.47;;;2.28;;
11984;SDS011;6052;53.246;10.368;2022-08-01T11:49:23;4.50;;;1.45;;
11984;SDS011;6052;53.246;10.368;2022-08-01T11:51:58;5.93;;;1.60;;
11984;SDS011;6052;53.246;10.368;2022-08-01T11:54:33;4.93;;;1.75;;
11984;SDS011;6052;53.246;10.368;2022-08-01T11:57:03;3.45;;;1.63;;
11984;SDS011;6052;53.246;10.368;2022-08-01T11:59:36;5.75;;;1.85;;
11984;SDS011;6052;53.246;10.368;2022-08-01T12:02:26;3.35;;;1.35;;
11984;SDS011;6052;53.246;10.368;2022-08-01T12:04:57;3.85;;;1.40;;
11984;SDS011;6052;53.246;10.368;2022-08-01T12:07:28;5.53;;;1.60;;
11984;SDS011;6052;53.246;10.368;2022-08-01T12:10:01;6.38;;;1.80;;
11984;SDS011;6052;53.246;10.368;2022-08-01T12:12:31;6.57;;;1.17;;
11984;SDS011;6052;53.246;10.368;2022-08-01T12:14:59;4.75;;;1.20;;
11984;SDS011;6052;53.246;10.368;2022-08-01T12:17:29;7.63;;;1.40;;
11984;SDS011;6052;53.246;10.368;2022-08-01T12:20:02;3.65;;;1.23;;
11984;SDS011;6052;53.246;10.368;2022-08-01T12:22:31;4.32;;;1.08;;
11984;SDS011;6052;53.246;10.368;2022-08-01T12:25:06;4.53;;;1.52;;
11984;SDS011;6052;53.246;10.368;2022-08-01T12:27:35;4.50;;;1.65;;
11984;SDS011;6052;53.246;10.368;2022-08-01T12:30:06;3.08;;;1.00;;
11984;SDS011;6052;53.246;10.368;2022-08-01T12:32:35;5.07;;;1.40;;
11984;SDS011;6052;53.246;10.368;2022-08-01T12:35:05;3.38;;;1.63;;
11984;SDS011;6052;53.246;10.368;2022-08-01T12:37:34;4.95;;;1.40;;
11984;SDS011;6052;53.246;10.368;2022-08-01T12:40:10;5.57;;;1.25;;
11984;SDS011;6052;53.246;10.368;2022-08-01T12:42:43;2.38;;;1.52;;
11984;SDS011;6052;53.246;10.368;2022-08-01T12:45:13;4.13;;;1.23;;
11984;SDS011;6052;53.246;10.368;2022-08-01T12:47:42;4.10;;;1.33;;
11984;SDS011;6052;53.246;10.368;2022-08-01T12:50:11;2.88;;;1.45;;
11984;SDS011;6052;53.246;10.368;2022-08-01T12:52:42;4.00;;;1.15;;
11984;SDS011;6052;53.246;10.368;2022-08-01T12:55:12;2.63;;;1.17;;
11984;SDS011;6052;53.246;10.368;2022-08-01T12:57:42;3.85;;;1.27;;
11984;SDS011;6052;53.246;10.368;2022-08-01T13:00:13;4.18;;;1.30;;
11984;SDS011;6052;53.246;10.368;2022-08-01T13:02:43;2.85;;;1.45;;
11984;SDS011;6052;53.246;10.368;2022-08-01T13:05:12;3.58;;;1.35;;
11984;SDS011;6052;53.246;10.368;2022-08-01T13:07:42;4.63;;;1.00;;
11984;SDS011;6052;53.246;10.368;2022-08-01T13:10:13;5.97;;;1.58;;
11984;SDS011;6052;53.246;10.368;2022-08-01T13:12:50;5.50;;;1.48;;
11984;SDS011;6052;53.246;10.368;2022-08-01T13:15:21;4.53;;;1.40;;
11984;SDS011;6052;53.246;10.368;2022-08-01T13:17:50;2.50;;;1.05;;
11984;SDS011;6052;53.246;10.368;2022-08-01T13:20:26;2.15;;;1.38;;
11984;SDS011;6052;53.246;10.368;2022-08-01T13:23:09;5.90;;;1.40;;
11984;SDS011;6052;53.246;10.368;2022-08-01T13:25:48;3.15;;;1.40;;
11984;SDS011;6052;53.246;10.368;2022-08-01T13:28:18;3.80;;;1.30;;
11984;SDS011;6052;53.246;10.368;2022-08-01T13:33:40;4.15;;;1.27;;
11984;SDS011;6052;53.246;10.368;2022-08-01T13:36:09;5.70;;;1.30;;
11984;SDS011;6052;53.246;10.368;2022-08-01T13:38:39;6.60;;;1.48;;
11984;SDS011;6052;53.246;10.368;2022-08-01T13:41:34;4.15;;;1.38;;
11984;SDS011;6052;53.246;10.368;2022-08-01T13:44:02;6.78;;;1.60;;
11984;SDS011;6052;53.246;10.368;2022-08-01T13:46:30;3.08;;;1.33;;
11984;SDS011;6052;53.246;10.368;2022-08-01T13:48:58;2.80;;;1.10;;
11984;SDS011;6052;53.246;10.368;2022-08-01T13:51:41;5.88;;;1.30;;
11984;SDS011;6052;53.246;10.368;2022-08-01T13:54:09;3.25;;;1.30;;
11984;SDS011;6052;53.246;10.368;2022-08-01T13:56:38;3.15;;;1.00;;
11984;SDS011;6052;53.246;10.368;2022-08-01T13:59:06;3.85;;;1.17;;
11984;SDS011;6052;53.246;10.368;2022-08-01T14:01:34;4.38;;;1.77;;
11984;SDS011;6052;53.246;10.368;2022-08-01T14:04:02;2.47;;;0.95;;
11984;SDS011;6052;53.246;10.368;2022-08-01T14:06:31;4.07;;;1.20;;
11984;SDS011;6052;53.246;10.368;2022-08-01T14:08:59;4.00;;;1.20;;
11984;SDS011;6052;53.246;10.368;2022-08-01T14:11:45;5.85;;;1.30;;
11984;SDS011;6052;53.246;10.368;2022-08-01T14:14:13;4.13;;;1.42;;
11984;SDS011;6052;53.246;10.368;2022-08-01T14:16:41;3.70;;;0.90;;
11984;SDS011;6052;53.246;10.368;2022-08-01T14:19:10;4.82;;;1.15;;
11984;SDS011;6052;53.246;10.368;2022-08-01T14:21:38;3.38;;;1.33;;
11984;SDS011;6052;53.246;10.368;2022-08-01T14:24:06;4.85;;;1.38;;
11984;SDS011;6052;53.246;10.368;2022-08-01T14:26:35;2.60;;;1.00;;
11984;SDS011;6052;53.246;10.368;2022-08-01T14:29:05;4.68;;;1.30;;
11984;SDS011;6052;53.246;10.368;2022-08-01T14:31:32;3.55;;;1.40;;
11984;SDS011;6052;53.246;10.368;2022-08-01T14:34:00;2.72;;;1.13;;
11984;SDS011;6052;53.246;10.368;2022-08-01T14:36:28;6.32;;;1.40;;
11984;SDS011;6052;53.246;10.368;2022-08-01T14:39:01;2.35;;;1.05;;
11984;SDS011;6052;53.246;10.368;2022-08-01T14:41:29;4.82;;;1.67;;
11984;SDS011;6052;53.246;10.368;2022-08-01T14:43:57;6.07;;;1.50;;
11984;SDS011;6052;53.246;10.368;2022-08-01T14:46:28;3.83;;;1.10;;
11984;SDS011;6052;53.246;10.368;2022-08-01T14:48:59;4.00;;;1.10;;
11984;SDS011;6052;53.246;10.368;2022-08-01T14:51:28;4.38;;;1.30;;
11984;SDS011;6052;53.246;10.368;2022-08-01T14:53:59;5.47;;;1.30;;
11984;SDS011;6052;53.246;10.368;2022-08-01T14:56:29;4.47;;;1.35;;
11984;SDS011;6052;53.246;10.368;2022-08-01T14:58:57;8.23;;;1.40;;
11984;SDS011;6052;53.246;10.368;2022-08-01T15:01:25;5.82;;;1.30;;
11984;SDS011;6052;53.246;10.368;2022-08-01T15:03:54;4.32;;;1.30;;
11984;SDS011;6052;53.246;10.368;2022-08-01T15:06:22;2.85;;;1.10;;
11984;SDS011;6052;53.246;10.368;2022-08-01T15:08:49;4.18;;;1.33;;
11984;SDS011;6052;53.246;10.368;2022-08-01T15:11:18;4.07;;;1.42;;
11984;SDS011;6052;53.246;10.368;2022-08-01T15:13:45;4.55;;;1.33;;
11984;SDS011;6052;53.246;10.368;2022-08-01T15:16:33;3.83;;;1.40;;
11984;SDS011;6052;53.246;10.368;2022-08-01T15:19:02;5.25;;;1.50;;
11984;SDS011;6052;53.246;10.368;2022-08-01T15:21:30;6.18;;;1.67;;